sensor_id;sensor_type;location;lat;lon;timestamp;P1;durP1;ratioP1;P2;durP2;ratioP2
81801;SDS011;71199;52.490;5.448;2023-08-12T00:00:55;10.98;;;4.60;;
81801;SDS011;71199;52.490;5.448;2023-08-12T00:03:20;9.50;;;5.00;;
81801;SDS011;71199;52.490;5.448;2023-08-12T00:05:46;11.77;;;4.72;;
81801;SDS011;71199;52.490;5.448;2023-08-12T00:08:12;9.75;;;5.25;;
81801;SDS011;71199;52.490;5.448;2023-08-12T00:10:37;12.73;;;4.60;;
81801;SDS011;71199;52.490;5.448;2023-08-12T00:13:02;11.15;;;5.32;;
81801;SDS011;71199;52.490;5.448;2023-08-12T00:15:28;11.38;;;5.05;;
81801;SDS011;71199;52.490;5.448;2023-08-12T00:17:53;9.90;;;4.63;;
81801;SDS011;71199;52.490;5.448;2023-08-12T00:20:19;8.13;;;5.00;;
81801;SDS011;71199;52.490;5.448;2023-08-12T00:22:44;9.25;;;5.68;;
81801;SDS011;71199;52.490;5.448;2023-08-12T00:25:10;10.73;;;5.83;;
81801;SDS011;71199;52.490;5.448;2023-08-12T00:27:35;9.75;;;5.40;;
81801;SDS011;71199;52.490;5.448;2023-08-12T00:30:02;10.30;;;5.43;;
81801;SDS011;71199;52.490;5.448;2023-08-12T00:32:28;9.13;;;5.55;;
81801;SDS011;71199;52.490;5.448;2023-08-12T00:34:53;13.10;;;6.07;;
81801;SDS011;71199;52.490;5.448;2023-08-12T00:37:19;9.03;;;6.83;;
81801;SDS011;71199;52.490;5.448;2023-08-12T00:39:44;9.77;;;6.07;;
81801;SDS011;71199;52.490;5.448;2023-08-12T00:42:09;10.82;;;5.43;;
81801;SDS011;71199;52.490;5.448;2023-08-12T00:44:35;11.03;;;5.63;;
81801;SDS011;71199;52.490;5.448;2023-08-12T00:47:00;15.23;;;5.78;;
81801;SDS011;71199;52.490;5.448;2023-08-12T00:49:26;13.38;;;5.65;;
81801;SDS011;71199;52.490;5.448;2023-08-12T00:51:52;11.85;;;6.43;;
81801;SDS011;71199;52.490;5.448;2023-08-12T00:56:48;9.88;;;6.32;;
81801;SDS011;71199;52.490;5.448;2023-08-12T00:59:14;14.50;;;6.45;;
81801;SDS011;71199;52.490;5.448;2023-08-12T01:01:42;14.25;;;6.53;;
81801;SDS011;71199;52.490;5.448;2023-08-12T01:04:08;13.95;;;7.60;;
81801;SDS011;71199;52.490;5.448;2023-08-12T01:06:34;13.75;;;6.90;;
81801;SDS011;71199;52.490;5.448;2023-08-12T01:09:00;12.50;;;6.68;;
81801;SDS011;71199;52.490;5.448;2023-08-12T01:11:34;14.00;;;6.72;;
81801;SDS011;71199;52.490;5.448;2023-08-12T01:14:06;11.02;;;6.28;;
81801;SDS011;71199;52.490;5.448;2023-08-12T01:16:39;12.38;;;6.90;;
81801;SDS011;71199;52.490;5.448;2023-08-12T01:19:10;16.23;;;6.32;;
81801;SDS011;71199;52.490;5.448;2023-08-12T01:21:43;12.60;;;6.22;;
81801;SDS011;71199;52.490;5.448;2023-08-12T01:24:09;13.82;;;6.28;;
81801;SDS011;71199;52.490;5.448;2023-08-12T01:26:35;13.75;;;6.07;;
81801;SDS011;71199;52.490;5.448;2023-08-12T01:29:00;16.00;;;5.90;;
81801;SDS011;71199;52.490;5.448;2023-08-12T01:34:06;10.43;;;5.90;;
81801;SDS011;71199;52.490;5.448;2023-08-12T01:36:41;13.63;;;5.53;;
81801;SDS011;71199;52.490;5.448;2023-08-12T01:39:16;9.10;;;5.75;;
81801;SDS011;71199;52.490;5.448;2023-08-12T01:41:43;12.07;;;6.22;;
81801;SDS011;71199;52.490;5.448;2023-08-12T01:44:09;9.35;;;5.80;;
81801;SDS011;71199;52.490;5.448;2023-08-12T01:46:35;11.07;;;6.03;;
81801;SDS011;71199;52.490;5.448;2023-08-12T01:49:01;11.25;;;6.00;;
81801;SDS011;71199;52.490;5.448;2023-08-12T01:51:26;14.60;;;6.43;;
81801;SDS011;71199;52.490;5.448;2023-08-12T01:53:51;13.95;;;6.43;;
81801;SDS011;71199;52.490;5.448;2023-08-12T01:56:17;12.63;;;5.97;;
81801;SDS011;71199;52.490;5.448;2023-08-12T01:58:42;12.73;;;6.17;;
81801;SDS011;71199;52.490;5.448;2023-08-12T02:01:07;11.50;;;6.57;;
81801;SDS011;71199;52.490;5.448;2023-08-12T02:03:33;15.43;;;7.70;;
81801;SDS011;71199;52.490;5.448;2023-08-12T02:05:58;11.80;;;6.80;;
81801;SDS011;71199;52.490;5.448;2023-08-12T02:08:23;13.33;;;6.40;;
81801;SDS011;71199;52.490;5.448;2023-08-12T02:10:49;11.17;;;6.40;;
81801;SDS011;71199;52.490;5.448;2023-08-12T02:13:14;10.27;;;6.43;;
81801;SDS011;71199;52.490;5.448;2023-08-12T02:15:39;11.63;;;6.47;;
81801;SDS011;71199;52.490;5.448;2023-08-12T02:18:05;12.63;;;6.70;;
81801;SDS011;71199;52.490;5.448;2023-08-12T02:20:30;14.23;;;6.97;;
81801;SDS011;71199;52.490;5.448;2023-08-12T02:22:56;13.82;;;7.18;;
81801;SDS011;71199;52.490;5.448;2023-08-12T02:25:21;15.60;;;6.73;;
81801;SDS011;71199;52.490;5.448;2023-08-12T02:27:46;12.73;;;6.37;;
81801;SDS011;71199;52.490;5.448;2023-08-12T02:30:12;14.33;;;7.50;;
81801;SDS011;71199;52.490;5.448;2023-08-12T02:32:37;15.82;;;6.40;;
81801;SDS011;71199;52.490;5.448;2023-08-12T02:35:02;12.20;;;6.73;;
81801;SDS011;71199;52.490;5.448;2023-08-12T02:37:28;12.63;;;6.57;;
81801;SDS011;71199;52.490;5.448;2023-08-12T02:39:53;12.80;;;6.78;;
81801;SDS011;71199;52.490;5.448;2023-08-12T02:42:19;14.75;;;7.68;;
81801;SDS011;71199;52.490;5.448;2023-08-12T02:44:45;14.37;;;7.00;;
81801;SDS011;71199;52.490;5.448;2023-08-12T02:47:10;17.23;;;7.87;;
81801;SDS011;71199;52.490;5.448;2023-08-12T02:49:35;14.93;;;8.30;;
81801;SDS011;71199;52.490;5.448;2023-08-12T02:52:01;14.27;;;7.63;;
81801;SDS011;71199;52.490;5.448;2023-08-12T02:54:26;12.68;;;7.10;;
81801;SDS011;71199;52.490;5.448;2023-08-12T02:56:52;16.57;;;7.93;;
81801;SDS011;71199;52.490;5.448;2023-08-12T02:59:17;12.90;;;8.20;;
81801;SDS011;71199;52.490;5.448;2023-08-12T03:01:42;17.30;;;8.00;;
81801;SDS011;71199;52.490;5.448;2023-08-12T03:04:08;14.38;;;8.05;;
81801;SDS011;71199;52.490;5.448;2023-08-12T03:06:33;17.52;;;8.65;;
81801;SDS011;71199;52.490;5.448;2023-08-12T03:08:58;17.50;;;8.80;;
81801;SDS011;71199;52.490;5.448;2023-08-12T03:11:24;16.15;;;8.77;;
81801;SDS011;71199;52.490;5.448;2023-08-12T03:13:49;18.42;;;8.43;;
81801;SDS011;71199;52.490;5.448;2023-08-12T03:16:14;21.10;;;9.60;;
81801;SDS011;71199;52.490;5.448;2023-08-12T03:18:40;17.75;;;9.30;;
81801;SDS011;71199;52.490;5.448;2023-08-12T03:21:07;14.82;;;8.32;;
81801;SDS011;71199;52.490;5.448;2023-08-12T03:23:33;17.88;;;9.43;;
81801;SDS011;71199;52.490;5.448;2023-08-12T03:25:59;20.25;;;8.55;;
81801;SDS011;71199;52.490;5.448;2023-08-12T03:28:24;17.47;;;8.77;;
81801;SDS011;71199;52.490;5.448;2023-08-12T03:30:50;19.93;;;8.33;;
81801;SDS011;71199;52.490;5.448;2023-08-12T03:33:17;15.52;;;8.88;;
81801;SDS011;71199;52.490;5.448;2023-08-12T03:35:46;16.48;;;8.98;;
81801;SDS011;71199;52.490;5.448;2023-08-12T03:38:12;14.32;;;8.82;;
81801;SDS011;71199;52.490;5.448;2023-08-12T03:40:38;18.70;;;9.95;;
81801;SDS011;71199;52.490;5.448;2023-08-12T03:43:03;21.15;;;9.75;;
81801;SDS011;71199;52.490;5.448;2023-08-12T03:45:29;21.52;;;9.75;;
81801;SDS011;71199;52.490;5.448;2023-08-12T03:47:54;19.25;;;10.13;;
81801;SDS011;71199;52.490;5.448;2023-08-12T03:50:20;16.63;;;9.30;;
81801;SDS011;71199;52.490;5.448;2023-08-12T03:52:45;21.00;;;10.10;;
81801;SDS011;71199;52.490;5.448;2023-08-12T03:55:10;17.23;;;10.87;;
81801;SDS011;71199;52.490;5.448;2023-08-12T03:57:36;26.13;;;10.88;;
81801;SDS011;71199;52.490;5.448;2023-08-12T04:00:01;24.53;;;12.17;;
81801;SDS011;71199;52.490;5.448;2023-08-12T04:02:28;20.80;;;11.05;;
81801;SDS011;71199;52.490;5.448;2023-08-12T04:04:53;19.35;;;11.65;;
81801;SDS011;71199;52.490;5.448;2023-08-12T04:07:18;24.10;;;11.50;;
81801;SDS011;71199;52.490;5.448;2023-08-12T04:09:44;22.00;;;12.32;;
81801;SDS011;71199;52.490;5.448;2023-08-12T04:12:09;24.77;;;12.60;;
81801;SDS011;71199;52.490;5.448;2023-08-12T04:14:35;25.87;;;12.63;;
81801;SDS011;71199;52.490;5.448;2023-08-12T04:17:00;26.05;;;13.18;;
81801;SDS011;71199;52.490;5.448;2023-08-12T04:19:25;26.02;;;13.63;;
81801;SDS011;71199;52.490;5.448;2023-08-12T04:21:51;23.93;;;14.63;;
81801;SDS011;71199;52.490;5.448;2023-08-12T04:24:16;27.33;;;14.53;;
81801;SDS011;71199;52.490;5.448;2023-08-12T04:26:41;22.87;;;14.37;;
81801;SDS011;71199;52.490;5.448;2023-08-12T04:29:07;27.58;;;14.52;;
81801;SDS011;71199;52.490;5.448;2023-08-12T04:31:32;27.63;;;14.27;;
81801;SDS011;71199;52.490;5.448;2023-08-12T04:33:58;26.17;;;15.50;;
81801;SDS011;71199;52.490;5.448;2023-08-12T04:36:23;27.53;;;15.07;;
81801;SDS011;71199;52.490;5.448;2023-08-12T04:38:48;28.30;;;15.03;;
81801;SDS011;71199;52.490;5.448;2023-08-12T04:41:15;27.38;;;15.07;;
81801;SDS011;71199;52.490;5.448;2023-08-12T04:43:40;24.55;;;14.50;;
81801;SDS011;71199;52.490;5.448;2023-08-12T04:46:06;25.58;;;14.20;;
81801;SDS011;71199;52.490;5.448;2023-08-12T04:48:31;27.65;;;15.43;;
81801;SDS011;71199;52.490;5.448;2023-08-12T04:50:57;26.37;;;14.37;;
81801;SDS011;71199;52.490;5.448;2023-08-12T04:53:28;24.80;;;13.75;;
81801;SDS011;71199;52.490;5.448;2023-08-12T04:55:54;28.70;;;13.85;;
81801;SDS011;71199;52.490;5.448;2023-08-12T04:58:20;26.77;;;14.15;;
81801;SDS011;71199;52.490;5.448;2023-08-12T05:00:46;26.53;;;13.87;;
81801;SDS011;71199;52.490;5.448;2023-08-12T05:03:12;23.45;;;14.13;;
81801;SDS011;71199;52.490;5.448;2023-08-12T05:05:37;26.25;;;13.80;;
81801;SDS011;71199;52.490;5.448;2023-08-12T05:08:03;25.60;;;14.67;;
81801;SDS011;71199;52.490;5.448;2023-08-12T05:10:28;23.58;;;13.75;;
81801;SDS011;71199;52.490;5.448;2023-08-12T05:12:54;29.10;;;15.03;;
81801;SDS011;71199;52.490;5.448;2023-08-12T05:15:22;26.58;;;14.68;;
81801;SDS011;71199;52.490;5.448;2023-08-12T05:17:47;23.53;;;13.77;;
81801;SDS011;71199;52.490;5.448;2023-08-12T05:20:13;26.23;;;13.48;;
81801;SDS011;71199;52.490;5.448;2023-08-12T05:22:38;21.03;;;12.60;;
81801;SDS011;71199;52.490;5.448;2023-08-12T05:25:03;27.70;;;13.20;;
81801;SDS011;71199;52.490;5.448;2023-08-12T05:27:29;19.98;;;11.85;;
81801;SDS011;71199;52.490;5.448;2023-08-12T05:29:54;20.97;;;12.50;;
81801;SDS011;71199;52.490;5.448;2023-08-12T05:32:20;26.35;;;12.98;;
81801;SDS011;71199;52.490;5.448;2023-08-12T05:34:45;23.10;;;13.73;;
81801;SDS011;71199;52.490;5.448;2023-08-12T05:37:11;23.23;;;12.97;;
81801;SDS011;71199;52.490;5.448;2023-08-12T05:39:36;24.23;;;13.77;;
81801;SDS011;71199;52.490;5.448;2023-08-12T05:42:01;24.13;;;12.65;;
81801;SDS011;71199;52.490;5.448;2023-08-12T05:44:27;24.17;;;12.30;;
81801;SDS011;71199;52.490;5.448;2023-08-12T05:46:52;22.53;;;13.00;;
81801;SDS011;71199;52.490;5.448;2023-08-12T05:49:17;22.47;;;13.50;;
81801;SDS011;71199;52.490;5.448;2023-08-12T05:51:43;23.50;;;14.40;;
81801;SDS011;71199;52.490;5.448;2023-08-12T05:54:08;26.63;;;14.02;;
81801;SDS011;71199;52.490;5.448;2023-08-12T05:56:34;27.97;;;14.83;;
81801;SDS011;71199;52.490;5.448;2023-08-12T05:58:59;26.00;;;16.13;;
81801;SDS011;71199;52.490;5.448;2023-08-12T06:01:24;25.30;;;14.80;;
81801;SDS011;71199;52.490;5.448;2023-08-12T06:03:50;27.42;;;14.95;;
81801;SDS011;71199;52.490;5.448;2023-08-12T06:06:15;27.43;;;14.63;;
81801;SDS011;71199;52.490;5.448;2023-08-12T06:08:40;30.88;;;16.42;;
81801;SDS011;71199;52.490;5.448;2023-08-12T06:11:06;31.05;;;15.52;;
81801;SDS011;71199;52.490;5.448;2023-08-12T06:13:31;28.77;;;15.50;;
81801;SDS011;71199;52.490;5.448;2023-08-12T06:15:57;27.13;;;15.60;;
81801;SDS011;71199;52.490;5.448;2023-08-12T06:18:22;28.83;;;15.50;;
81801;SDS011;71199;52.490;5.448;2023-08-12T06:20:47;27.57;;;16.50;;
81801;SDS011;71199;52.490;5.448;2023-08-12T06:23:13;24.05;;;16.33;;
81801;SDS011;71199;52.490;5.448;2023-08-12T06:25:38;27.07;;;16.30;;
81801;SDS011;71199;52.490;5.448;2023-08-12T06:28:03;28.38;;;15.15;;
81801;SDS011;71199;52.490;5.448;2023-08-12T06:30:29;24.58;;;16.08;;
81801;SDS011;71199;52.490;5.448;2023-08-12T06:32:55;30.23;;;16.48;;
81801;SDS011;71199;52.490;5.448;2023-08-12T06:35:21;27.33;;;17.42;;
81801;SDS011;71199;52.490;5.448;2023-08-12T06:37:46;30.20;;;17.45;;
81801;SDS011;71199;52.490;5.448;2023-08-12T06:40:12;29.20;;;17.50;;
81801;SDS011;71199;52.490;5.448;2023-08-12T06:42:37;29.92;;;17.58;;
81801;SDS011;71199;52.490;5.448;2023-08-12T06:45:03;29.47;;;17.77;;
81801;SDS011;71199;52.490;5.448;2023-08-12T06:47:29;31.17;;;17.60;;
81801;SDS011;71199;52.490;5.448;2023-08-12T06:49:54;31.75;;;19.13;;
81801;SDS011;71199;52.490;5.448;2023-08-12T06:52:20;29.58;;;18.92;;
81801;SDS011;71199;52.490;5.448;2023-08-12T06:54:45;39.70;;;19.63;;
81801;SDS011;71199;52.490;5.448;2023-08-12T06:57:10;33.75;;;19.70;;
81801;SDS011;71199;52.490;5.448;2023-08-12T06:59:36;35.30;;;21.10;;
81801;SDS011;71199;52.490;5.448;2023-08-12T07:02:02;43.88;;;20.48;;
81801;SDS011;71199;52.490;5.448;2023-08-12T07:04:28;37.78;;;20.50;;
81801;SDS011;71199;52.490;5.448;2023-08-12T07:06:53;37.60;;;20.98;;
81801;SDS011;71199;52.490;5.448;2023-08-12T07:09:18;42.37;;;21.47;;
81801;SDS011;71199;52.490;5.448;2023-08-12T07:11:44;37.83;;;21.27;;
81801;SDS011;71199;52.490;5.448;2023-08-12T07:14:09;38.83;;;20.40;;
81801;SDS011;71199;52.490;5.448;2023-08-12T07:16:35;34.30;;;19.25;;
81801;SDS011;71199;52.490;5.448;2023-08-12T07:19:00;36.80;;;20.02;;
81801;SDS011;71199;52.490;5.448;2023-08-12T07:21:26;34.03;;;19.85;;
81801;SDS011;71199;52.490;5.448;2023-08-12T07:23:51;34.15;;;19.77;;
81801;SDS011;71199;52.490;5.448;2023-08-12T07:26:17;31.77;;;19.33;;
81801;SDS011;71199;52.490;5.448;2023-08-12T07:28:42;39.50;;;18.52;;
81801;SDS011;71199;52.490;5.448;2023-08-12T07:31:07;25.30;;;15.93;;
81801;SDS011;71199;52.490;5.448;2023-08-12T07:33:33;24.38;;;15.02;;
81801;SDS011;71199;52.490;5.448;2023-08-12T07:35:59;22.38;;;14.00;;
81801;SDS011;71199;52.490;5.448;2023-08-12T07:38:24;27.17;;;14.87;;
81801;SDS011;71199;52.490;5.448;2023-08-12T07:40:50;25.67;;;14.68;;
81801;SDS011;71199;52.490;5.448;2023-08-12T07:43:15;19.83;;;12.60;;
81801;SDS011;71199;52.490;5.448;2023-08-12T07:45:41;20.02;;;12.65;;
81801;SDS011;71199;52.490;5.448;2023-08-12T07:48:06;16.70;;;10.23;;
81801;SDS011;71199;52.490;5.448;2023-08-12T07:50:31;15.52;;;8.50;;
81801;SDS011;71199;52.490;5.448;2023-08-12T07:52:57;12.27;;;8.32;;
81801;SDS011;71199;52.490;5.448;2023-08-12T07:55:22;13.45;;;7.25;;
81801;SDS011;71199;52.490;5.448;2023-08-12T07:57:47;11.87;;;7.53;;
81801;SDS011;71199;52.490;5.448;2023-08-12T08:00:13;12.73;;;8.23;;
81801;SDS011;71199;52.490;5.448;2023-08-12T08:02:38;10.25;;;6.25;;
81801;SDS011;71199;52.490;5.448;2023-08-12T08:05:04;11.87;;;6.33;;
81801;SDS011;71199;52.490;5.448;2023-08-12T08:07:30;12.25;;;6.30;;
81801;SDS011;71199;52.490;5.448;2023-08-12T08:09:56;8.57;;;5.47;;
81801;SDS011;71199;52.490;5.448;2023-08-12T08:12:21;10.18;;;6.25;;
81801;SDS011;71199;52.490;5.448;2023-08-12T08:14:46;11.30;;;4.90;;
81801;SDS011;71199;52.490;5.448;2023-08-12T08:17:12;11.20;;;5.30;;
81801;SDS011;71199;52.490;5.448;2023-08-12T08:19:37;8.70;;;5.50;;
81801;SDS011;71199;52.490;5.448;2023-08-12T08:22:03;19.17;;;5.72;;
81801;SDS011;71199;52.490;5.448;2023-08-12T08:24:28;8.88;;;5.50;;
81801;SDS011;71199;52.490;5.448;2023-08-12T08:26:54;7.13;;;5.35;;
81801;SDS011;71199;52.490;5.448;2023-08-12T08:29:20;9.65;;;5.07;;
81801;SDS011;71199;52.490;5.448;2023-08-12T08:31:46;10.32;;;4.68;;
81801;SDS011;71199;52.490;5.448;2023-08-12T08:34:11;9.10;;;4.40;;
81801;SDS011;71199;52.490;5.448;2023-08-12T08:36:36;9.60;;;5.10;;
81801;SDS011;71199;52.490;5.448;2023-08-12T08:39:02;9.87;;;5.10;;
81801;SDS011;71199;52.490;5.448;2023-08-12T08:41:28;6.57;;;4.60;;
81801;SDS011;71199;52.490;5.448;2023-08-12T08:43:56;9.88;;;4.10;;
81801;SDS011;71199;52.490;5.448;2023-08-12T08:46:28;8.25;;;3.88;;
81801;SDS011;71199;52.490;5.448;2023-08-12T08:48:54;6.55;;;4.25;;
81801;SDS011;71199;52.490;5.448;2023-08-12T08:51:23;6.43;;;3.88;;
81801;SDS011;71199;52.490;5.448;2023-08-12T08:53:50;7.28;;;3.42;;
81801;SDS011;71199;52.490;5.448;2023-08-12T08:56:18;5.88;;;3.55;;
81801;SDS011;71199;52.490;5.448;2023-08-12T08:58:44;5.05;;;3.17;;
81801;SDS011;71199;52.490;5.448;2023-08-12T09:01:09;4.82;;;2.80;;
81801;SDS011;71199;52.490;5.448;2023-08-12T09:03:36;4.93;;;3.03;;
81801;SDS011;71199;52.490;5.448;2023-08-12T09:06:03;5.22;;;2.47;;
81801;SDS011;71199;52.490;5.448;2023-08-12T09:08:29;5.45;;;2.50;;
81801;SDS011;71199;52.490;5.448;2023-08-12T09:10:57;8.63;;;2.63;;
81801;SDS011;71199;52.490;5.448;2023-08-12T09:13:24;6.05;;;2.22;;
81801;SDS011;71199;52.490;5.448;2023-08-12T09:15:50;5.80;;;2.50;;
81801;SDS011;71199;52.490;5.448;2023-08-12T09:18:16;7.90;;;3.15;;
81801;SDS011;71199;52.490;5.448;2023-08-12T09:20:42;6.85;;;2.63;;
81801;SDS011;71199;52.490;5.448;2023-08-12T09:23:08;4.80;;;2.72;;
81801;SDS011;71199;52.490;5.448;2023-08-12T09:25:35;6.43;;;2.38;;
81801;SDS011;71199;52.490;5.448;2023-08-12T09:28:08;10.05;;;2.80;;
81801;SDS011;71199;52.490;5.448;2023-08-12T09:30:34;4.60;;;2.15;;
81801;SDS011;71199;52.490;5.448;2023-08-12T09:33:01;6.60;;;2.17;;
81801;SDS011;71199;52.490;5.448;2023-08-12T09:35:32;5.95;;;2.53;;
81801;SDS011;71199;52.490;5.448;2023-08-12T09:37:58;7.70;;;2.20;;
81801;SDS011;71199;52.490;5.448;2023-08-12T09:40:23;8.55;;;3.00;;
81801;SDS011;71199;52.490;5.448;2023-08-12T09:42:49;6.90;;;2.50;;
81801;SDS011;71199;52.490;5.448;2023-08-12T09:45:15;6.80;;;2.83;;
81801;SDS011;71199;52.490;5.448;2023-08-12T09:47:42;5.93;;;2.85;;
81801;SDS011;71199;52.490;5.448;2023-08-12T09:50:09;6.97;;;2.42;;
81801;SDS011;71199;52.490;5.448;2023-08-12T09:52:36;9.48;;;2.70;;
81801;SDS011;71199;52.490;5.448;2023-08-12T09:55:02;4.25;;;2.55;;
81801;SDS011;71199;52.490;5.448;2023-08-12T09:57:30;6.32;;;2.42;;
81801;SDS011;71199;52.490;5.448;2023-08-12T09:59:58;8.10;;;2.60;;
81801;SDS011;71199;52.490;5.448;2023-08-12T10:02:25;7.22;;;2.70;;
81801;SDS011;71199;52.490;5.448;2023-08-12T10:04:53;8.82;;;2.70;;
81801;SDS011;71199;52.490;5.448;2023-08-12T10:07:22;7.93;;;3.25;;
81801;SDS011;71199;52.490;5.448;2023-08-12T10:14:40;7.18;;;2.58;;
81801;SDS011;71199;52.490;5.448;2023-08-12T10:17:05;6.38;;;2.30;;
81801;SDS011;71199;52.490;5.448;2023-08-12T10:19:31;6.47;;;2.33;;
81801;SDS011;71199;52.490;5.448;2023-08-12T10:21:57;8.90;;;2.47;;
81801;SDS011;71199;52.490;5.448;2023-08-12T10:24:24;6.38;;;2.72;;
81801;SDS011;71199;52.490;5.448;2023-08-12T10:26:51;4.65;;;2.63;;
81801;SDS011;71199;52.490;5.448;2023-08-12T10:29:19;7.50;;;2.67;;
81801;SDS011;71199;52.490;5.448;2023-08-12T10:31:46;6.85;;;2.67;;
81801;SDS011;71199;52.490;5.448;2023-08-12T10:34:18;9.02;;;3.13;;
81801;SDS011;71199;52.490;5.448;2023-08-12T10:36:45;8.32;;;2.60;;
81801;SDS011;71199;52.490;5.448;2023-08-12T10:39:11;7.18;;;2.58;;
81801;SDS011;71199;52.490;5.448;2023-08-12T10:41:36;4.47;;;2.05;;
81801;SDS011;71199;52.490;5.448;2023-08-12T10:44:03;6.80;;;2.00;;
81801;SDS011;71199;52.490;5.448;2023-08-12T10:46:31;9.38;;;2.05;;
81801;SDS011;71199;52.490;5.448;2023-08-12T10:48:58;7.22;;;2.50;;
81801;SDS011;71199;52.490;5.448;2023-08-12T11:02:25;6.50;;;2.47;;
81801;SDS011;71199;52.490;5.448;2023-08-12T11:07:17;9.80;;;2.80;;
81801;SDS011;71199;52.490;5.448;2023-08-12T11:12:10;6.75;;;2.55;;
81801;SDS011;71199;52.490;5.448;2023-08-12T11:14:48;8.23;;;2.65;;
81801;SDS011;71199;52.490;5.448;2023-08-12T11:17:18;7.80;;;2.50;;
81801;SDS011;71199;52.490;5.448;2023-08-12T11:19:43;7.73;;;2.67;;
81801;SDS011;71199;52.490;5.448;2023-08-12T11:22:09;8.98;;;2.53;;
81801;SDS011;71199;52.490;5.448;2023-08-12T11:24:38;7.93;;;2.85;;
81801;SDS011;71199;52.490;5.448;2023-08-12T11:27:08;7.78;;;3.30;;
81801;SDS011;71199;52.490;5.448;2023-08-12T11:29:35;6.80;;;2.72;;
81801;SDS011;71199;52.490;5.448;2023-08-12T11:32:00;8.07;;;2.70;;
81801;SDS011;71199;52.490;5.448;2023-08-12T11:34:26;9.20;;;2.70;;
81801;SDS011;71199;52.490;5.448;2023-08-12T11:36:51;11.82;;;2.60;;
81801;SDS011;71199;52.490;5.448;2023-08-12T11:39:17;10.32;;;2.88;;
81801;SDS011;71199;52.490;5.448;2023-08-12T11:41:42;10.10;;;2.80;;
81801;SDS011;71199;52.490;5.448;2023-08-12T11:44:20;7.75;;;2.63;;
81801;SDS011;71199;52.490;5.448;2023-08-12T11:46:47;8.45;;;2.50;;
81801;SDS011;71199;52.490;5.448;2023-08-12T11:49:12;7.27;;;2.57;;
81801;SDS011;71199;52.490;5.448;2023-08-12T11:51:37;11.43;;;2.55;;
81801;SDS011;71199;52.490;5.448;2023-08-12T11:54:03;11.90;;;3.13;;
81801;SDS011;71199;52.490;5.448;2023-08-12T11:56:29;7.00;;;2.50;;
81801;SDS011;71199;52.490;5.448;2023-08-12T11:58:55;9.82;;;3.17;;
81801;SDS011;71199;52.490;5.448;2023-08-12T12:01:21;7.70;;;2.40;;
81801;SDS011;71199;52.490;5.448;2023-08-12T12:03:53;14.18;;;4.07;;
81801;SDS011;71199;52.490;5.448;2023-08-12T12:06:33;10.93;;;2.83;;
81801;SDS011;71199;52.490;5.448;2023-08-12T12:09:08;11.32;;;2.50;;
81801;SDS011;71199;52.490;5.448;2023-08-12T12:11:37;8.07;;;2.90;;
81801;SDS011;71199;52.490;5.448;2023-08-12T12:14:04;10.40;;;2.58;;
81801;SDS011;71199;52.490;5.448;2023-08-12T12:16:44;11.43;;;3.10;;
81801;SDS011;71199;52.490;5.448;2023-08-12T12:19:20;7.35;;;2.58;;
81801;SDS011;71199;52.490;5.448;2023-08-12T12:21:47;12.05;;;3.08;;
81801;SDS011;71199;52.490;5.448;2023-08-12T12:24:17;15.05;;;3.08;;
81801;SDS011;71199;52.490;5.448;2023-08-12T12:26:44;10.73;;;2.72;;
81801;SDS011;71199;52.490;5.448;2023-08-12T12:29:10;8.70;;;2.60;;
81801;SDS011;71199;52.490;5.448;2023-08-12T12:31:39;10.90;;;3.10;;
81801;SDS011;71199;52.490;5.448;2023-08-12T12:34:06;10.88;;;2.65;;
81801;SDS011;71199;52.490;5.448;2023-08-12T12:36:34;10.68;;;3.63;;
81801;SDS011;71199;52.490;5.448;2023-08-12T12:39:01;8.25;;;3.40;;
81801;SDS011;71199;52.490;5.448;2023-08-12T12:41:27;10.30;;;2.55;;
81801;SDS011;71199;52.490;5.448;2023-08-12T12:43:53;10.48;;;2.60;;
81801;SDS011;71199;52.490;5.448;2023-08-12T12:46:18;8.25;;;2.40;;
81801;SDS011;71199;52.490;5.448;2023-08-12T12:48:44;9.98;;;3.58;;
81801;SDS011;71199;52.490;5.448;2023-08-12T12:51:10;8.15;;;2.92;;
81801;SDS011;71199;52.490;5.448;2023-08-12T12:53:36;8.00;;;3.47;;
81801;SDS011;71199;52.490;5.448;2023-08-12T12:56:02;9.88;;;2.80;;
81801;SDS011;71199;52.490;5.448;2023-08-12T12:58:29;7.60;;;2.45;;
81801;SDS011;71199;52.490;5.448;2023-08-12T13:01:03;10.65;;;3.60;;
81801;SDS011;71199;52.490;5.448;2023-08-12T13:03:30;10.25;;;2.53;;
81801;SDS011;71199;52.490;5.448;2023-08-12T13:05:56;8.57;;;2.65;;
81801;SDS011;71199;52.490;5.448;2023-08-12T13:08:22;9.70;;;3.08;;
81801;SDS011;71199;52.490;5.448;2023-08-12T13:10:47;7.13;;;2.47;;
81801;SDS011;71199;52.490;5.448;2023-08-12T13:13:14;10.25;;;2.88;;
81801;SDS011;71199;52.490;5.448;2023-08-12T13:15:43;13.10;;;3.63;;
81801;SDS011;71199;52.490;5.448;2023-08-12T13:18:10;8.35;;;2.88;;
81801;SDS011;71199;52.490;5.448;2023-08-12T13:20:36;11.73;;;3.13;;
81801;SDS011;71199;52.490;5.448;2023-08-12T13:23:02;10.43;;;2.83;;
81801;SDS011;71199;52.490;5.448;2023-08-12T13:25:29;7.15;;;2.60;;
81801;SDS011;71199;52.490;5.448;2023-08-12T13:27:56;9.23;;;2.83;;
81801;SDS011;71199;52.490;5.448;2023-08-12T13:30:21;10.05;;;2.67;;
81801;SDS011;71199;52.490;5.448;2023-08-12T13:32:47;10.45;;;2.80;;
81801;SDS011;71199;52.490;5.448;2023-08-12T13:35:12;12.37;;;2.60;;
81801;SDS011;71199;52.490;5.448;2023-08-12T13:37:38;9.75;;;2.50;;
81801;SDS011;71199;52.490;5.448;2023-08-12T13:40:03;13.77;;;2.78;;
81801;SDS011;71199;52.490;5.448;2023-08-12T13:42:29;8.77;;;2.80;;
81801;SDS011;71199;52.490;5.448;2023-08-12T13:44:54;8.20;;;2.70;;
81801;SDS011;71199;52.490;5.448;2023-08-12T13:47:21;10.77;;;3.00;;
81801;SDS011;71199;52.490;5.448;2023-08-12T13:49:46;10.75;;;3.30;;
81801;SDS011;71199;52.490;5.448;2023-08-12T13:52:11;9.67;;;3.17;;
81801;SDS011;71199;52.490;5.448;2023-08-12T13:54:37;8.60;;;2.78;;
81801;SDS011;71199;52.490;5.448;2023-08-12T13:57:02;12.13;;;3.17;;
81801;SDS011;71199;52.490;5.448;2023-08-12T13:59:29;10.07;;;2.60;;
81801;SDS011;71199;52.490;5.448;2023-08-12T14:01:54;14.95;;;3.17;;
81801;SDS011;71199;52.490;5.448;2023-08-12T14:04:20;8.40;;;2.60;;
81801;SDS011;71199;52.490;5.448;2023-08-12T14:06:45;8.82;;;2.50;;
81801;SDS011;71199;52.490;5.448;2023-08-12T14:09:11;8.95;;;3.28;;
81801;SDS011;71199;52.490;5.448;2023-08-12T14:11:38;8.35;;;2.35;;
81801;SDS011;71199;52.490;5.448;2023-08-12T14:14:04;12.57;;;3.50;;
81801;SDS011;71199;52.490;5.448;2023-08-12T14:16:30;6.90;;;2.40;;
81801;SDS011;71199;52.490;5.448;2023-08-12T14:18:55;11.63;;;2.63;;
81801;SDS011;71199;52.490;5.448;2023-08-12T14:21:20;9.13;;;2.87;;
81801;SDS011;71199;52.490;5.448;2023-08-12T14:23:46;14.18;;;3.47;;
81801;SDS011;71199;52.490;5.448;2023-08-12T14:26:11;10.97;;;2.60;;
81801;SDS011;71199;52.490;5.448;2023-08-12T14:28:36;8.30;;;2.55;;
81801;SDS011;71199;52.490;5.448;2023-08-12T14:31:02;9.80;;;2.47;;
81801;SDS011;71199;52.490;5.448;2023-08-12T14:33:28;8.05;;;2.53;;
81801;SDS011;71199;52.490;5.448;2023-08-12T14:35:54;11.55;;;2.88;;
81801;SDS011;71199;52.490;5.448;2023-08-12T14:38:22;7.68;;;2.65;;
81801;SDS011;71199;52.490;5.448;2023-08-12T14:40:48;9.38;;;2.50;;
81801;SDS011;71199;52.490;5.448;2023-08-12T14:43:14;9.15;;;2.50;;
81801;SDS011;71199;52.490;5.448;2023-08-12T14:45:39;7.93;;;2.75;;
81801;SDS011;71199;52.490;5.448;2023-08-12T14:48:05;7.30;;;2.60;;
81801;SDS011;71199;52.490;5.448;2023-08-12T14:50:30;11.23;;;3.05;;
81801;SDS011;71199;52.490;5.448;2023-08-12T14:52:56;7.60;;;2.33;;
81801;SDS011;71199;52.490;5.448;2023-08-12T14:55:21;12.35;;;2.80;;